sensor_id;sensor_type;location;lat;lon;timestamp;P1;durP1;ratioP1;P2;durP2;ratioP2
14381;SDS011;7275;50.328;8.720;2022-11-27T00:00:07;6.27;;;4.40;;
14381;SDS011;7275;50.328;8.720;2022-11-27T00:02:36;7.03;;;4.57;;
14381;SDS011;7275;50.328;8.720;2022-11-27T00:05:06;5.73;;;4.07;;
14381;SDS011;7275;50.328;8.720;2022-11-27T00:07:34;7.47;;;4.40;;
14381;SDS011;7275;50.328;8.720;2022-11-27T00:10:04;4.57;;;4.13;;
14381;SDS011;7275;50.328;8.720;2022-11-27T00:12:32;5.60;;;4.40;;
14381;SDS011;7275;50.328;8.720;2022-11-27T00:15:01;5.00;;;4.13;;
14381;SDS011;7275;50.328;8.720;2022-11-27T00:17:28;6.57;;;4.43;;
14381;SDS011;7275;50.328;8.720;2022-11-27T00:19:56;6.40;;;4.47;;
14381;SDS011;7275;50.328;8.720;2022-11-27T00:22:24;6.00;;;4.23;;
14381;SDS011;7275;50.328;8.720;2022-11-27T00:24:53;6.43;;;4.40;;
14381;SDS011;7275;50.328;8.720;2022-11-27T00:27:22;5.90;;;4.80;;
14381;SDS011;7275;50.328;8.720;2022-11-27T00:29:49;5.40;;;4.30;;
14381;SDS011;7275;50.328;8.720;2022-11-27T00:32:17;7.07;;;4.70;;
14381;SDS011;7275;50.328;8.720;2022-11-27T00:34:45;7.40;;;4.97;;
14381;SDS011;7275;50.328;8.720;2022-11-27T00:37:12;7.20;;;4.83;;
14381;SDS011;7275;50.328;8.720;2022-11-27T00:39:40;6.53;;;5.00;;
14381;SDS011;7275;50.328;8.720;2022-11-27T00:42:08;7.73;;;5.00;;
14381;SDS011;7275;50.328;8.720;2022-11-27T00:44:37;6.57;;;4.97;;
14381;SDS011;7275;50.328;8.720;2022-11-27T00:47:04;6.47;;;4.97;;
14381;SDS011;7275;50.328;8.720;2022-11-27T00:49:32;6.13;;;4.53;;
14381;SDS011;7275;50.328;8.720;2022-11-27T00:52:00;6.00;;;4.67;;
14381;SDS011;7275;50.328;8.720;2022-11-27T00:54:28;7.83;;;4.93;;
14381;SDS011;7275;50.328;8.720;2022-11-27T00:56:55;6.87;;;4.67;;
14381;SDS011;7275;50.328;8.720;2022-11-27T00:59:23;6.33;;;4.60;;
14381;SDS011;7275;50.328;8.720;2022-11-27T01:01:52;6.10;;;4.77;;
14381;SDS011;7275;50.328;8.720;2022-11-27T01:04:19;7.57;;;4.70;;
14381;SDS011;7275;50.328;8.720;2022-11-27T01:06:47;6.60;;;4.60;;
14381;SDS011;7275;50.328;8.720;2022-11-27T01:09:15;5.60;;;4.23;;
14381;SDS011;7275;50.328;8.720;2022-11-27T01:11:42;5.73;;;4.47;;
14381;SDS011;7275;50.328;8.720;2022-11-27T01:14:13;6.07;;;4.37;;
14381;SDS011;7275;50.328;8.720;2022-11-27T01:16:43;7.10;;;4.73;;
14381;SDS011;7275;50.328;8.720;2022-11-27T01:19:12;6.53;;;4.60;;
14381;SDS011;7275;50.328;8.720;2022-11-27T01:21:41;5.43;;;4.57;;
14381;SDS011;7275;50.328;8.720;2022-11-27T01:24:09;6.87;;;5.23;;
14381;SDS011;7275;50.328;8.720;2022-11-27T01:26:39;6.07;;;4.97;;
14381;SDS011;7275;50.328;8.720;2022-11-27T01:29:07;5.53;;;4.80;;
14381;SDS011;7275;50.328;8.720;2022-11-27T01:31:35;7.77;;;5.47;;
14381;SDS011;7275;50.328;8.720;2022-11-27T01:34:04;9.27;;;5.73;;
14381;SDS011;7275;50.328;8.720;2022-11-27T01:36:34;6.47;;;5.23;;
14381;SDS011;7275;50.328;8.720;2022-11-27T01:39:02;6.43;;;4.97;;
14381;SDS011;7275;50.328;8.720;2022-11-27T01:41:31;6.87;;;5.03;;
14381;SDS011;7275;50.328;8.720;2022-11-27T01:44:00;7.10;;;5.20;;
14381;SDS011;7275;50.328;8.720;2022-11-27T01:46:32;8.03;;;5.10;;
14381;SDS011;7275;50.328;8.720;2022-11-27T01:51:53;8.30;;;6.03;;
14381;SDS011;7275;50.328;8.720;2022-11-27T01:54:26;9.07;;;5.97;;
14381;SDS011;7275;50.328;8.720;2022-11-27T01:56:58;8.43;;;5.83;;
14381;SDS011;7275;50.328;8.720;2022-11-27T01:59:30;7.77;;;5.57;;
14381;SDS011;7275;50.328;8.720;2022-11-27T02:01:58;6.87;;;5.30;;
14381;SDS011;7275;50.328;8.720;2022-11-27T02:04:26;8.77;;;5.57;;
14381;SDS011;7275;50.328;8.720;2022-11-27T02:06:56;8.40;;;5.70;;
14381;SDS011;7275;50.328;8.720;2022-11-27T02:09:25;7.47;;;5.80;;
14381;SDS011;7275;50.328;8.720;2022-11-27T02:11:54;7.87;;;5.33;;
14381;SDS011;7275;50.328;8.720;2022-11-27T02:14:28;6.83;;;5.30;;
14381;SDS011;7275;50.328;8.720;2022-11-27T02:17:03;5.73;;;4.87;;
14381;SDS011;7275;50.328;8.720;2022-11-27T02:19:46;8.13;;;5.13;;
14381;SDS011;7275;50.328;8.720;2022-11-27T02:22:31;9.50;;;5.70;;
14381;SDS011;7275;50.328;8.720;2022-11-27T02:25:12;6.80;;;5.27;;
14381;SDS011;7275;50.328;8.720;2022-11-27T02:28:01;6.63;;;5.03;;
14381;SDS011;7275;50.328;8.720;2022-11-27T02:30:45;8.13;;;4.70;;
14381;SDS011;7275;50.328;8.720;2022-11-27T02:33:19;7.67;;;5.30;;
14381;SDS011;7275;50.328;8.720;2022-11-27T02:35:48;7.27;;;5.23;;
14381;SDS011;7275;50.328;8.720;2022-11-27T02:38:20;8.20;;;5.60;;
14381;SDS011;7275;50.328;8.720;2022-11-27T02:40:53;6.50;;;4.87;;
14381;SDS011;7275;50.328;8.720;2022-11-27T02:43:24;6.73;;;5.20;;
14381;SDS011;7275;50.328;8.720;2022-11-27T02:45:58;6.73;;;5.07;;
14381;SDS011;7275;50.328;8.720;2022-11-27T02:48:29;6.90;;;5.03;;
14381;SDS011;7275;50.328;8.720;2022-11-27T02:51:00;6.27;;;4.97;;
14381;SDS011;7275;50.328;8.720;2022-11-27T02:53:30;7.10;;;4.93;;
14381;SDS011;7275;50.328;8.720;2022-11-27T02:56:01;6.23;;;4.50;;
14381;SDS011;7275;50.328;8.720;2022-11-27T02:58:31;5.90;;;4.80;;
14381;SDS011;7275;50.328;8.720;2022-11-27T03:01:01;5.50;;;4.90;;
14381;SDS011;7275;50.328;8.720;2022-11-27T03:03:31;6.33;;;4.70;;
14381;SDS011;7275;50.328;8.720;2022-11-27T03:06:04;6.67;;;5.10;;
14381;SDS011;7275;50.328;8.720;2022-11-27T03:08:37;5.93;;;4.67;;
14381;SDS011;7275;50.328;8.720;2022-11-27T03:11:12;6.73;;;4.80;;
14381;SDS011;7275;50.328;8.720;2022-11-27T03:13:41;5.57;;;4.63;;
14381;SDS011;7275;50.328;8.720;2022-11-27T03:16:14;6.43;;;4.90;;
14381;SDS011;7275;50.328;8.720;2022-11-27T03:18:49;8.10;;;5.40;;
14381;SDS011;7275;50.328;8.720;2022-11-27T03:21:24;8.13;;;5.20;;
14381;SDS011;7275;50.328;8.720;2022-11-27T03:23:55;7.03;;;5.30;;
14381;SDS011;7275;50.328;8.720;2022-11-27T03:26:24;5.97;;;4.67;;
14381;SDS011;7275;50.328;8.720;2022-11-27T03:28:52;6.90;;;5.50;;
14381;SDS011;7275;50.328;8.720;2022-11-27T03:31:24;7.10;;;5.47;;
14381;SDS011;7275;50.328;8.720;2022-11-27T03:33:53;5.93;;;5.03;;
14381;SDS011;7275;50.328;8.720;2022-11-27T03:36:21;7.93;;;5.87;;
14381;SDS011;7275;50.328;8.720;2022-11-27T03:38:49;8.73;;;6.27;;
14381;SDS011;7275;50.328;8.720;2022-11-27T03:41:20;7.97;;;5.60;;
14381;SDS011;7275;50.328;8.720;2022-11-27T03:43:55;7.67;;;5.00;;
14381;SDS011;7275;50.328;8.720;2022-11-27T03:46:33;7.63;;;4.97;;
14381;SDS011;7275;50.328;8.720;2022-11-27T03:49:11;7.33;;;5.27;;
14381;SDS011;7275;50.328;8.720;2022-11-27T03:51:46;5.93;;;5.07;;
14381;SDS011;7275;50.328;8.720;2022-11-27T03:54:22;6.60;;;4.77;;
14381;SDS011;7275;50.328;8.720;2022-11-27T03:57:00;6.17;;;4.77;;
14381;SDS011;7275;50.328;8.720;2022-11-27T03:59:36;7.07;;;5.43;;
14381;SDS011;7275;50.328;8.720;2022-11-27T04:02:11;7.30;;;6.00;;
14381;SDS011;7275;50.328;8.720;2022-11-27T04:04:39;6.20;;;5.30;;
14381;SDS011;7275;50.328;8.720;2022-11-27T04:07:08;7.37;;;5.63;;
14381;SDS011;7275;50.328;8.720;2022-11-27T04:09:42;7.20;;;5.87;;
14381;SDS011;7275;50.328;8.720;2022-11-27T04:12:09;7.23;;;6.20;;
14381;SDS011;7275;50.328;8.720;2022-11-27T04:14:37;8.47;;;6.20;;
14381;SDS011;7275;50.328;8.720;2022-11-27T04:17:04;9.20;;;6.97;;
14381;SDS011;7275;50.328;8.720;2022-11-27T04:19:33;9.97;;;7.27;;
14381;SDS011;7275;50.328;8.720;2022-11-27T04:22:01;9.37;;;7.40;;
14381;SDS011;7275;50.328;8.720;2022-11-27T04:24:29;8.57;;;6.53;;
14381;SDS011;7275;50.328;8.720;2022-11-27T04:26:56;11.80;;;7.30;;
14381;SDS011;7275;50.328;8.720;2022-11-27T04:29:24;8.87;;;6.57;;
14381;SDS011;7275;50.328;8.720;2022-11-27T04:31:51;11.03;;;7.17;;
14381;SDS011;7275;50.328;8.720;2022-11-27T04:34:19;10.23;;;7.03;;
14381;SDS011;7275;50.328;8.720;2022-11-27T04:36:48;8.27;;;6.70;;
14381;SDS011;7275;50.328;8.720;2022-11-27T04:39:16;9.87;;;6.30;;
14381;SDS011;7275;50.328;8.720;2022-11-27T04:41:43;9.53;;;6.87;;
14381;SDS011;7275;50.328;8.720;2022-11-27T04:44:11;8.63;;;6.60;;
14381;SDS011;7275;50.328;8.720;2022-11-27T04:46:39;9.33;;;6.93;;
14381;SDS011;7275;50.328;8.720;2022-11-27T04:49:08;10.60;;;7.60;;
14381;SDS011;7275;50.328;8.720;2022-11-27T04:51:36;11.53;;;7.93;;
14381;SDS011;7275;50.328;8.720;2022-11-27T04:54:05;11.13;;;7.77;;
14381;SDS011;7275;50.328;8.720;2022-11-27T04:56:32;10.53;;;7.67;;
14381;SDS011;7275;50.328;8.720;2022-11-27T04:59:00;10.30;;;8.17;;
14381;SDS011;7275;50.328;8.720;2022-11-27T05:01:27;8.97;;;6.87;;
14381;SDS011;7275;50.328;8.720;2022-11-27T05:03:55;8.47;;;7.13;;
14381;SDS011;7275;50.328;8.720;2022-11-27T05:06:22;8.80;;;7.03;;
14381;SDS011;7275;50.328;8.720;2022-11-27T05:08:50;10.77;;;7.87;;
14381;SDS011;7275;50.328;8.720;2022-11-27T05:11:19;10.10;;;7.77;;
14381;SDS011;7275;50.328;8.720;2022-11-27T05:13:46;9.53;;;7.10;;
14381;SDS011;7275;50.328;8.720;2022-11-27T05:16:15;8.53;;;7.17;;
14381;SDS011;7275;50.328;8.720;2022-11-27T05:18:42;9.73;;;7.00;;
14381;SDS011;7275;50.328;8.720;2022-11-27T05:21:10;10.63;;;7.77;;
14381;SDS011;7275;50.328;8.720;2022-11-27T05:23:37;8.27;;;6.40;;
14381;SDS011;7275;50.328;8.720;2022-11-27T05:26:05;10.60;;;6.87;;
14381;SDS011;7275;50.328;8.720;2022-11-27T05:28:34;11.30;;;8.10;;
14381;SDS011;7275;50.328;8.720;2022-11-27T05:31:01;9.33;;;7.63;;
14381;SDS011;7275;50.328;8.720;2022-11-27T05:33:29;10.43;;;7.77;;
14381;SDS011;7275;50.328;8.720;2022-11-27T05:35:56;8.67;;;7.37;;
14381;SDS011;7275;50.328;8.720;2022-11-27T05:38:24;10.90;;;7.33;;
14381;SDS011;7275;50.328;8.720;2022-11-27T05:40:51;9.70;;;7.20;;
14381;SDS011;7275;50.328;8.720;2022-11-27T05:43:19;9.50;;;7.30;;
14381;SDS011;7275;50.328;8.720;2022-11-27T05:45:48;10.20;;;7.23;;
14381;SDS011;7275;50.328;8.720;2022-11-27T05:48:15;9.93;;;7.27;;
14381;SDS011;7275;50.328;8.720;2022-11-27T05:50:43;8.63;;;7.50;;
14381;SDS011;7275;50.328;8.720;2022-11-27T05:53:10;10.60;;;7.13;;
14381;SDS011;7275;50.328;8.720;2022-11-27T05:55:38;8.67;;;7.20;;
14381;SDS011;7275;50.328;8.720;2022-11-27T05:58:06;11.17;;;7.37;;
14381;SDS011;7275;50.328;8.720;2022-11-27T06:00:33;9.10;;;6.97;;
14381;SDS011;7275;50.328;8.720;2022-11-27T06:03:02;9.07;;;7.00;;
14381;SDS011;7275;50.328;8.720;2022-11-27T06:05:30;10.43;;;6.47;;
14381;SDS011;7275;50.328;8.720;2022-11-27T06:07:57;10.03;;;6.97;;
14381;SDS011;7275;50.328;8.720;2022-11-27T06:10:25;9.07;;;6.80;;
14381;SDS011;7275;50.328;8.720;2022-11-27T06:12:53;8.67;;;6.77;;
14381;SDS011;7275;50.328;8.720;2022-11-27T06:15:21;9.33;;;7.63;;
14381;SDS011;7275;50.328;8.720;2022-11-27T06:17:49;9.93;;;7.13;;
14381;SDS011;7275;50.328;8.720;2022-11-27T06:20:18;9.60;;;7.70;;
14381;SDS011;7275;50.328;8.720;2022-11-27T06:22:46;9.07;;;7.47;;
14381;SDS011;7275;50.328;8.720;2022-11-27T06:25:13;10.67;;;7.73;;
14381;SDS011;7275;50.328;8.720;2022-11-27T06:27:41;10.20;;;7.47;;
14381;SDS011;7275;50.328;8.720;2022-11-27T06:30:09;10.37;;;7.83;;
14381;SDS011;7275;50.328;8.720;2022-11-27T06:32:37;12.90;;;8.13;;
14381;SDS011;7275;50.328;8.720;2022-11-27T06:35:05;10.10;;;7.90;;
14381;SDS011;7275;50.328;8.720;2022-11-27T06:37:35;11.73;;;8.07;;
14381;SDS011;7275;50.328;8.720;2022-11-27T06:40:03;8.80;;;7.50;;
14381;SDS011;7275;50.328;8.720;2022-11-27T06:42:32;12.80;;;7.30;;
14381;SDS011;7275;50.328;8.720;2022-11-27T06:44:59;9.27;;;7.40;;
14381;SDS011;7275;50.328;8.720;2022-11-27T06:47:27;9.00;;;7.33;;
14381;SDS011;7275;50.328;8.720;2022-11-27T06:49:54;11.53;;;7.93;;
14381;SDS011;7275;50.328;8.720;2022-11-27T06:52:22;12.17;;;8.47;;
14381;SDS011;7275;50.328;8.720;2022-11-27T06:54:51;11.73;;;8.07;;
14381;SDS011;7275;50.328;8.720;2022-11-27T06:57:18;10.03;;;7.93;;
14381;SDS011;7275;50.328;8.720;2022-11-27T06:59:46;9.03;;;8.13;;
14381;SDS011;7275;50.328;8.720;2022-11-27T07:02:15;12.03;;;8.80;;
14381;SDS011;7275;50.328;8.720;2022-11-27T07:04:43;10.27;;;8.27;;
14381;SDS011;7275;50.328;8.720;2022-11-27T07:07:10;10.93;;;7.83;;
14381;SDS011;7275;50.328;8.720;2022-11-27T07:09:38;10.57;;;8.07;;
14381;SDS011;7275;50.328;8.720;2022-11-27T07:12:07;8.87;;;7.53;;
14381;SDS011;7275;50.328;8.720;2022-11-27T07:14:35;9.87;;;8.00;;
14381;SDS011;7275;50.328;8.720;2022-11-27T07:17:03;9.43;;;7.97;;
14381;SDS011;7275;50.328;8.720;2022-11-27T07:19:31;10.70;;;8.33;;
14381;SDS011;7275;50.328;8.720;2022-11-27T07:21:58;9.73;;;8.20;;
14381;SDS011;7275;50.328;8.720;2022-11-27T07:24:26;9.40;;;8.13;;
14381;SDS011;7275;50.328;8.720;2022-11-27T07:26:53;11.13;;;8.00;;
14381;SDS011;7275;50.328;8.720;2022-11-27T07:29:22;10.37;;;8.60;;
14381;SDS011;7275;50.328;8.720;2022-11-27T07:31:50;10.73;;;8.20;;
14381;SDS011;7275;50.328;8.720;2022-11-27T07:34:18;9.37;;;8.30;;
14381;SDS011;7275;50.328;8.720;2022-11-27T07:36:47;10.97;;;8.70;;
14381;SDS011;7275;50.328;8.720;2022-11-27T07:39:14;11.70;;;8.00;;
14381;SDS011;7275;50.328;8.720;2022-11-27T07:42:03;10.80;;;8.43;;
14381;SDS011;7275;50.328;8.720;2022-11-27T07:44:51;11.93;;;8.17;;
14381;SDS011;7275;50.328;8.720;2022-11-27T07:47:19;13.63;;;8.80;;
14381;SDS011;7275;50.328;8.720;2022-11-27T07:49:46;11.33;;;8.20;;
14381;SDS011;7275;50.328;8.720;2022-11-27T07:52:14;12.23;;;8.03;;
14381;SDS011;7275;50.328;8.720;2022-11-27T07:54:42;9.27;;;7.70;;
14381;SDS011;7275;50.328;8.720;2022-11-27T07:57:09;11.80;;;7.87;;
14381;SDS011;7275;50.328;8.720;2022-11-27T07:59:37;8.97;;;7.47;;
14381;SDS011;7275;50.328;8.720;2022-11-27T08:02:13;8.07;;;6.97;;
14381;SDS011;7275;50.328;8.720;2022-11-27T08:04:41;8.40;;;6.70;;
14381;SDS011;7275;50.328;8.720;2022-11-27T08:07:09;7.93;;;7.13;;
14381;SDS011;7275;50.328;8.720;2022-11-27T08:09:37;7.60;;;6.63;;
14381;SDS011;7275;50.328;8.720;2022-11-27T08:12:05;8.23;;;6.97;;
14381;SDS011;7275;50.328;8.720;2022-11-27T08:14:33;9.17;;;6.90;;
14381;SDS011;7275;50.328;8.720;2022-11-27T08:17:00;8.17;;;6.83;;
14381;SDS011;7275;50.328;8.720;2022-11-27T08:19:29;7.73;;;6.10;;
14381;SDS011;7275;50.328;8.720;2022-11-27T08:21:57;7.30;;;6.60;;
14381;SDS011;7275;50.328;8.720;2022-11-27T08:24:24;7.00;;;6.30;;
14381;SDS011;7275;50.328;8.720;2022-11-27T08:26:52;7.33;;;6.53;;
14381;SDS011;7275;50.328;8.720;2022-11-27T08:29:19;8.50;;;6.57;;
14381;SDS011;7275;50.328;8.720;2022-11-27T08:31:47;7.47;;;6.40;;
14381;SDS011;7275;50.328;8.720;2022-11-27T08:34:15;8.40;;;6.73;;
14381;SDS011;7275;50.328;8.720;2022-11-27T08:36:44;7.93;;;6.37;;
14381;SDS011;7275;50.328;8.720;2022-11-27T08:39:12;7.20;;;6.37;;
14381;SDS011;7275;50.328;8.720;2022-11-27T08:41:40;7.33;;;6.00;;
14381;SDS011;7275;50.328;8.720;2022-11-27T08:44:08;6.53;;;5.87;;
14381;SDS011;7275;50.328;8.720;2022-11-27T08:46:35;6.63;;;5.73;;
14381;SDS011;7275;50.328;8.720;2022-11-27T08:49:03;6.33;;;5.60;;
14381;SDS011;7275;50.328;8.720;2022-11-27T08:51:30;6.80;;;5.63;;
14381;SDS011;7275;50.328;8.720;2022-11-27T08:53:59;6.53;;;5.50;;
14381;SDS011;7275;50.328;8.720;2022-11-27T08:56:27;6.57;;;5.77;;
14381;SDS011;7275;50.328;8.720;2022-11-27T08:58:55;6.70;;;5.33;;
14381;SDS011;7275;50.328;8.720;2022-11-27T09:01:23;6.23;;;5.03;;
14381;SDS011;7275;50.328;8.720;2022-11-27T09:03:52;6.47;;;5.10;;
14381;SDS011;7275;50.328;8.720;2022-11-27T09:06:21;5.63;;;5.13;;
14381;SDS011;7275;50.328;8.720;2022-11-27T09:08:50;5.90;;;5.30;;
14381;SDS011;7275;50.328;8.720;2022-11-27T09:11:19;6.27;;;5.43;;
14381;SDS011;7275;50.328;8.720;2022-11-27T09:13:47;5.77;;;5.23;;
14381;SDS011;7275;50.328;8.720;2022-11-27T09:16:16;5.97;;;5.20;;
14381;SDS011;7275;50.328;8.720;2022-11-27T09:18:45;6.27;;;5.67;;
14381;SDS011;7275;50.328;8.720;2022-11-27T09:21:15;6.03;;;5.43;;
14381;SDS011;7275;50.328;8.720;2022-11-27T09:23:43;6.00;;;5.20;;
14381;SDS011;7275;50.328;8.720;2022-11-27T09:26:12;5.27;;;4.77;;
14381;SDS011;7275;50.328;8.720;2022-11-27T09:28:43;5.40;;;4.90;;
14381;SDS011;7275;50.328;8.720;2022-11-27T09:31:12;5.60;;;5.00;;
14381;SDS011;7275;50.328;8.720;2022-11-27T09:33:41;5.57;;;4.90;;
14381;SDS011;7275;50.328;8.720;2022-11-27T09:36:10;6.43;;;5.10;;
14381;SDS011;7275;50.328;8.720;2022-11-27T09:38:39;5.83;;;5.23;;
14381;SDS011;7275;50.328;8.720;2022-11-27T09:41:13;7.20;;;4.90;;
14381;SDS011;7275;50.328;8.720;2022-11-27T09:43:54;5.50;;;4.90;;
14381;SDS011;7275;50.328;8.720;2022-11-27T09:46:25;5.40;;;4.90;;
14381;SDS011;7275;50.328;8.720;2022-11-27T09:48:57;5.43;;;4.80;;
14381;SDS011;7275;50.328;8.720;2022-11-27T09:51:27;5.90;;;4.70;;
14381;SDS011;7275;50.328;8.720;2022-11-27T09:53:59;6.67;;;4.77;;
14381;SDS011;7275;50.328;8.720;2022-11-27T09:56:31;5.20;;;4.60;;
14381;SDS011;7275;50.328;8.720;2022-11-27T09:59:03;4.83;;;4.27;;
14381;SDS011;7275;50.328;8.720;2022-11-27T10:01:37;4.33;;;3.93;;
14381;SDS011;7275;50.328;8.720;2022-11-27T10:04:16;4.87;;;4.40;;
14381;SDS011;7275;50.328;8.720;2022-11-27T10:06:50;4.60;;;4.20;;
14381;SDS011;7275;50.328;8.720;2022-11-27T10:09:33;4.10;;;3.70;;
14381;SDS011;7275;50.328;8.720;2022-11-27T10:12:10;4.90;;;4.40;;
14381;SDS011;7275;50.328;8.720;2022-11-27T10:14:49;5.30;;;4.30;;
14381;SDS011;7275;50.328;8.720;2022-11-27T10:17:27;5.57;;;4.43;;
14381;SDS011;7275;50.328;8.720;2022-11-27T10:20:00;5.00;;;4.50;;
14381;SDS011;7275;50.328;8.720;2022-11-27T10:22:38;5.30;;;4.37;;
14381;SDS011;7275;50.328;8.720;2022-11-27T10:25:14;5.10;;;4.60;;
14381;SDS011;7275;50.328;8.720;2022-11-27T10:27:49;4.83;;;4.43;;
14381;SDS011;7275;50.328;8.720;2022-11-27T10:30:27;5.90;;;4.60;;
14381;SDS011;7275;50.328;8.720;2022-11-27T10:32:57;4.93;;;4.43;;
14381;SDS011;7275;50.328;8.720;2022-11-27T10:35:27;5.03;;;4.43;;
14381;SDS011;7275;50.328;8.720;2022-11-27T10:37:57;5.43;;;4.20;;
14381;SDS011;7275;50.328;8.720;2022-11-27T10:40:33;5.00;;;4.60;;
14381;SDS011;7275;50.328;8.720;2022-11-27T10:43:06;5.27;;;4.47;;
14381;SDS011;7275;50.328;8.720;2022-11-27T10:45:41;5.37;;;4.30;;
14381;SDS011;7275;50.328;8.720;2022-11-27T10:48:12;4.93;;;4.13;;
14381;SDS011;7275;50.328;8.720;2022-11-27T10:50:41;5.17;;;4.53;;
14381;SDS011;7275;50.328;8.720;2022-11-27T10:53:13;5.00;;;4.50;;
14381;SDS011;7275;50.328;8.720;2022-11-27T10:55:50;7.13;;;4.97;;
14381;SDS011;7275;50.328;8.720;2022-11-27T10:58:26;6.20;;;4.70;;
14381;SDS011;7275;50.328;8.720;2022-11-27T11:01:01;5.97;;;4.93;;
14381;SDS011;7275;50.328;8.720;2022-11-27T11:03:30;6.40;;;5.10;;
14381;SDS011;7275;50.328;8.720;2022-11-27T11:05:59;4.93;;;4.43;;
14381;SDS011;7275;50.328;8.720;2022-11-27T11:08:46;5.00;;;4.50;;
14381;SDS011;7275;50.328;8.720;2022-11-27T11:11:23;5.90;;;4.87;;
14381;SDS011;7275;50.328;8.720;2022-11-27T11:13:52;6.17;;;5.27;;
14381;SDS011;7275;50.328;8.720;2022-11-27T11:16:23;5.53;;;4.93;;
14381;SDS011;7275;50.328;8.720;2022-11-27T11:19:00;5.50;;;4.63;;
14381;SDS011;7275;50.328;8.720;2022-11-27T11:21:28;5.03;;;4.53;;
14381;SDS011;7275;50.328;8.720;2022-11-27T11:23:58;6.17;;;5.00;;
14381;SDS011;7275;50.328;8.720;2022-11-27T11:26:28;6.73;;;5.27;;
14381;SDS011;7275;50.328;8.720;2022-11-27T11:28:58;5.60;;;5.00;;
14381;SDS011;7275;50.328;8.720;2022-11-27T11:31:31;6.00;;;5.00;;
14381;SDS011;7275;50.328;8.720;2022-11-27T11:34:02;4.97;;;4.40;;
14381;SDS011;7275;50.328;8.720;2022-11-27T11:36:32;6.80;;;4.87;;
14381;SDS011;7275;50.328;8.720;2022-11-27T11:39:01;5.30;;;4.60;;
14381;SDS011;7275;50.328;8.720;2022-11-27T11:41:34;4.83;;;4.27;;
14381;SDS011;7275;50.328;8.720;2022-11-27T11:44:03;4.47;;;3.97;;
14381;SDS011;7275;50.328;8.720;2022-11-27T11:46:32;5.57;;;4.30;;
14381;SDS011;7275;50.328;8.720;2022-11-27T11:49:04;5.37;;;3.80;;
14381;SDS011;7275;50.328;8.720;2022-11-27T11:51:37;4.83;;;3.83;;
14381;SDS011;7275;50.328;8.720;2022-11-27T11:54:19;6.07;;;3.90;;
14381;SDS011;7275;50.328;8.720;2022-11-27T11:56:58;5.67;;;3.80;;
14381;SDS011;7275;50.328;8.720;2022-11-27T11:59:30;4.10;;;3.63;;
14381;SDS011;7275;50.328;8.720;2022-11-27T12:05:10;4.93;;;3.73;;
14381;SDS011;7275;50.328;8.720;2022-11-27T12:07:48;3.97;;;3.50;;
14381;SDS011;7275;50.328;8.720;2022-11-27T12:10:38;4.43;;;3.33;;
14381;SDS011;7275;50.328;8.720;2022-11-27T12:13:17;3.93;;;3.53;;
14381;SDS011;7275;50.328;8.720;2022-11-27T12:16:00;4.93;;;3.43;;
14381;SDS011;7275;50.328;8.720;2022-11-27T12:18:36;5.77;;;3.70;;
14381;SDS011;7275;50.328;8.720;2022-11-27T12:21:12;4.07;;;3.43;;
14381;SDS011;7275;50.328;8.720;2022-11-27T12:23:48;4.27;;;3.50;;
14381;SDS011;7275;50.328;8.720;2022-11-27T12:26:35;4.43;;;3.57;;
14381;SDS011;7275;50.328;8.720;2022-11-27T12:29:32;4.70;;;3.60;;
14381;SDS011;7275;50.328;8.720;2022-11-27T12:32:19;3.43;;;3.07;;
14381;SDS011;7275;50.328;8.720;2022-11-27T12:35:21;4.80;;;3.57;;
14381;SDS011;7275;50.328;8.720;2022-11-27T12:37:59;3.97;;;3.50;;
14381;SDS011;7275;50.328;8.720;2022-11-27T12:40:41;5.50;;;3.60;;
14381;SDS011;7275;50.328;8.720;2022-11-27T12:43:21;3.93;;;3.33;;
14381;SDS011;7275;50.328;8.720;2022-11-27T12:45:52;4.53;;;3.47;;
14381;SDS011;7275;50.328;8.720;2022-11-27T12:48:26;5.33;;;3.30;;
14381;SDS011;7275;50.328;8.720;2022-11-27T12:51:03;5.60;;;3.47;;
14381;SDS011;7275;50.328;8.720;2022-11-27T12:53:35;4.10;;;3.33;;
14381;SDS011;7275;50.328;8.720;2022-11-27T12:56:07;4.80;;;3.27;;
14381;SDS011;7275;50.328;8.720;2022-11-27T12:58:41;4.93;;;3.23;;
14381;SDS011;7275;50.328;8.720;2022-11-27T13:01:13;3.67;;;3.17;;
14381;SDS011;7275;50.328;8.720;2022-11-27T13:03:55;3.47;;;3.17;;
14381;SDS011;7275;50.328;8.720;2022-11-27T13:06:33;3.50;;;3.17;;
14381;SDS011;7275;50.328;8.720;2022-11-27T13:09:12;3.60;;;3.00;;
14381;SDS011;7275;50.328;8.720;2022-11-27T13:11:46;4.03;;;3.50;;
14381;SDS011;7275;50.328;8.720;2022-11-27T13:14:15;3.63;;;3.20;;
14381;SDS011;7275;50.328;8.720;2022-11-27T13:16:46;4.27;;;3.30;;
14381;SDS011;7275;50.328;8.720;2022-11-27T13:19:21;3.40;;;2.87;;
14381;SDS011;7275;50.328;8.720;2022-11-27T13:21:54;3.67;;;2.90;;
14381;SDS011;7275;50.328;8.720;2022-11-27T13:24:24;4.30;;;3.30;;
14381;SDS011;7275;50.328;8.720;2022-11-27T13:26:53;3.20;;;2.90;;
14381;SDS011;7275;50.328;8.720;2022-11-27T13:29:28;3.50;;;3.20;;
14381;SDS011;7275;50.328;8.720;2022-11-27T13:32:00;3.50;;;2.97;;
14381;SDS011;7275;50.328;8.720;2022-11-27T13:34:31;4.13;;;2.90;;
14381;SDS011;7275;50.328;8.720;2022-11-27T13:37:09;4.07;;;3.30;;
14381;SDS011;7275;50.328;8.720;2022-11-27T13:39:57;3.50;;;2.87;;
14381;SDS011;7275;50.328;8.720;2022-11-27T13:42:26;3.00;;;2.70;;
14381;SDS011;7275;50.328;8.720;2022-11-27T13:44:55;3.33;;;2.70;;
14381;SDS011;7275;50.328;8.720;2022-11-27T13:47:27;3.60;;;2.80;;
14381;SDS011;7275;50.328;8.720;2022-11-27T13:50:02;3.10;;;2.80;;
14381;SDS011;7275;50.328;8.720;2022-11-27T13:52:33;3.90;;;2.80;;
14381;SDS011;7275;50.328;8.720;2022-11-27T13:55:02;2.97;;;2.60;;
14381;SDS011;7275;50.328;8.720;2022-11-27T13:57:32;3.93;;;3.00;;
14381;SDS011;7275;50.328;8.720;2022-11-27T14:00:02;3.33;;;2.90;;
14381;SDS011;7275;50.328;8.720;2022-11-27T14:02:39;3.70;;;2.97;;
14381;SDS011;7275;50.328;8.720;2022-11-27T14:05:08;3.90;;;3.00;;
14381;SDS011;7275;50.328;8.720;2022-11-27T14:07:39;4.10;;;3.20;;
14381;SDS011;7275;50.328;8.720;2022-11-27T14:10:10;4.93;;;3.10;;
14381;SDS011;7275;50.328;8.720;2022-11-27T14:12:40;3.67;;;2.97;;
14381;SDS011;7275;50.328;8.720;2022-11-27T14:15:19;4.10;;;3.03;;
14381;SDS011;7275;50.328;8.720;2022-11-27T14:17:50;3.70;;;2.80;;
14381;SDS011;7275;50.328;8.720;2022-11-27T14:20:23;3.93;;;3.07;;
14381;SDS011;7275;50.328;8.720;2022-11-27T14:22:56;3.60;;;2.73;;
14381;SDS011;7275;50.328;8.720;2022-11-27T14:25:37;7.60;;;3.07;;
14381;SDS011;7275;50.328;8.720;2022-11-27T14:28:08;3.57;;;2.90;;
14381;SDS011;7275;50.328;8.720;2022-11-27T14:30:42;4.30;;;3.00;;
14381;SDS011;7275;50.328;8.720;2022-11-27T14:33:16;3.63;;;3.10;;
14381;SDS011;7275;50.328;8.720;2022-11-27T14:35:48;4.07;;;2.77;;
14381;SDS011;7275;50.328;8.720;2022-11-27T14:38:18;3.90;;;3.13;;
14381;SDS011;7275;50.328;8.720;2022-11-27T14:40:46;4.17;;;3.33;;
14381;SDS011;7275;50.328;8.720;2022-11-27T14:43:15;3.27;;;2.90;;
14381;SDS011;7275;50.328;8.720;2022-11-27T14:45:44;3.20;;;2.90;;
14381;SDS011;7275;50.328;8.720;2022-11-27T14:48:15;3.53;;;2.97;;
14381;SDS011;7275;50.328;8.720;2022-11-27T14:53:15;5.63;;;3.50;;
14381;SDS011;7275;50.328;8.720;2022-11-27T14:55:45;4.07;;;3.57;;
14381;SDS011;7275;50.328;8.720;2022-11-27T14:58:16;3.73;;;3.10;;
14381;SDS011;7275;50.328;8.720;2022-11-27T15:00:57;3.40;;;2.77;;
14381;SDS011;7275;50.328;8.720;2022-11-27T15:03:26;3.17;;;2.80;;
14381;SDS011;7275;50.328;8.720;2022-11-27T15:05:56;3.20;;;2.77;;
14381;SDS011;7275;50.328;8.720;2022-11-27T15:08:27;3.27;;;2.80;;
14381;SDS011;7275;50.328;8.720;2022-11-27T15:10:57;2.80;;;2.53;;
14381;SDS011;7275;50.328;8.720;2022-11-27T15:13:28;2.80;;;2.50;;
14381;SDS011;7275;50.328;8.720;2022-11-27T15:15:58;3.20;;;2.90;;
14381;SDS011;7275;50.328;8.720;2022-11-27T15:18:28;3.20;;;2.67;;
14381;SDS011;7275;50.328;8.720;2022-11-27T15:20:58;3.20;;;2.90;;
14381;SDS011;7275;50.328;8.720;2022-11-27T15:23:28;2.80;;;2.60;;
14381;SDS011;7275;50.328;8.720;2022-11-27T15:26:04;3.30;;;3.00;;
14381;SDS011;7275;50.328;8.720;2022-11-27T15:28:42;3.03;;;2.60;;
14381;SDS011;7275;50.328;8.720;2022-11-27T15:31:24;3.33;;;2.90;;